createdAt,value
2023-02-11T00:01:43.868Z,11.52
2023-02-11T00:06:42.735Z,11.45
2023-02-11T00:11:41.508Z,11.60
2023-02-11T00:16:40.672Z,11.43
2023-02-11T00:21:40.407Z,10.88
2023-02-11T00:26:39.110Z,11.75
2023-02-11T00:31:37.984Z,10.48
2023-02-11T00:36:37.432Z,10.65
2023-02-11T00:41:36.192Z,11.40
2023-02-11T00:46:35.116Z,10.27
2023-02-11T00:51:34.020Z,12.23
2023-02-11T00:56:35.759Z,10.98
2023-02-11T01:01:34.925Z,11.57
2023-02-11T01:06:33.823Z,10.32
2023-02-11T01:11:32.566Z,12.95
2023-02-11T01:16:31.510Z,13.50
2023-02-11T01:21:30.457Z,11.32
2023-02-11T01:26:29.395Z,11.98
2023-02-11T01:31:31.320Z,11.30
2023-02-11T01:36:32.695Z,11.32
2023-02-11T01:41:32.593Z,12.18
2023-02-11T01:46:36.879Z,11.60
2023-02-11T01:51:43.978Z,12.60
2023-02-11T01:57:04.988Z,11.65
2023-02-11T02:02:09.986Z,11.68
2023-02-11T02:07:14.599Z,12.18
2023-02-11T02:12:13.367Z,12.32
2023-02-11T02:17:29.366Z,11.80
2023-02-11T02:28:27.280Z,12.13
2023-02-11T02:33:32.117Z,11.13
2023-02-11T02:38:37.881Z,11.55
2023-02-11T02:43:42.673Z,11.65
2023-02-11T02:48:42.147Z,11.63
2023-02-11T02:54:18.864Z,12.25
2023-02-11T02:59:29.494Z,11.57
2023-02-11T03:04:41.122Z,10.80
2023-02-11T03:10:03.344Z,10.43
2023-02-11T03:15:05.662Z,12.35
2023-02-11T03:20:06.990Z,11.57
2023-02-11T03:25:06.227Z,12.23
2023-02-11T03:30:51.682Z,12.25
2023-02-11T03:35:50.582Z,10.95
2023-02-11T03:40:50.827Z,12.00
2023-02-11T03:45:53.450Z,14.07
2023-02-11T03:50:54.536Z,12.93
2023-02-11T03:55:57.048Z,10.82
2023-02-11T04:00:56.065Z,12.43
2023-02-11T04:05:54.851Z,11.70
2023-02-11T04:10:53.640Z,12.88
2023-02-11T04:15:52.637Z,12.07
2023-02-11T04:20:51.866Z,13.50
2023-02-11T04:25:50.980Z,11.98
2023-02-11T04:30:51.616Z,12.57
2023-02-11T04:35:50.869Z,12.10
2023-02-11T04:40:50.292Z,13.45
2023-02-11T04:45:49.410Z,12.85
2023-02-11T04:50:48.371Z,11.55
2023-02-11T04:55:53.285Z,12.40
2023-02-11T05:00:52.463Z,13.95
2023-02-11T05:05:51.602Z,12.77
2023-02-11T05:10:50.480Z,14.75
2023-02-11T05:15:49.697Z,14.43
2023-02-11T05:20:48.655Z,14.52
2023-02-11T05:25:47.498Z,12.95
2023-02-11T05:30:46.312Z,14.90
2023-02-11T05:35:45.132Z,13.93
2023-02-11T05:40:44.916Z,13.73
2023-02-11T05:45:43.729Z,13.85
2023-02-11T05:50:42.734Z,13.25
2023-02-11T05:55:41.443Z,13.90
2023-02-11T06:00:40.326Z,14.15
2023-02-11T06:05:39.214Z,12.88
2023-02-11T06:10:38.440Z,15.38
2023-02-11T06:15:37.308Z,12.52
2023-02-11T06:20:37.305Z,14.38
2023-02-11T06:25:37.195Z,14.68
2023-02-11T06:30:37.547Z,15.73
2023-02-11T06:35:39.804Z,14.25
2023-02-11T06:40:38.669Z,13.57
2023-02-11T06:45:37.429Z,12.85
2023-02-11T06:50:36.210Z,14.00
2023-02-11T06:55:35.472Z,13.55
2023-02-11T07:00:34.464Z,13.98
2023-02-11T07:05:34.445Z,11.57
2023-02-11T07:10:34.064Z,14.18
2023-02-11T07:15:33.041Z,13.25
2023-02-11T07:20:31.864Z,12.90
2023-02-11T07:25:30.996Z,12.60
2023-02-11T07:30:29.852Z,11.05
2023-02-11T07:35:28.824Z,15.60
2023-02-11T07:40:27.535Z,11.85
2023-02-11T07:45:26.356Z,15.85
2023-02-11T07:50:25.425Z,14.68
2023-02-11T07:55:24.401Z,13.38
2023-02-11T08:00:23.260Z,13.15
2023-02-11T08:05:22.232Z,14.43
2023-02-11T08:10:21.729Z,13.18
2023-02-11T08:15:20.896Z,14.27
2023-02-11T08:20:19.922Z,13.82
2023-02-11T08:25:18.828Z,10.75
2023-02-11T08:30:17.629Z,13.35
2023-02-11T08:35:16.599Z,15.45
2023-02-11T08:40:15.613Z,12.55
2023-02-11T08:45:14.434Z,15.40
2023-02-11T08:50:13.491Z,15.63
2023-02-11T08:55:12.200Z,13.85
2023-02-11T09:00:12.838Z,11.50
2023-02-11T09:05:11.758Z,12.85
2023-02-11T09:10:12.163Z,11.07
2023-02-11T09:15:11.030Z,15.70
2023-02-11T09:20:10.892Z,13.13
2023-02-11T09:25:09.792Z,14.70
2023-02-11T09:30:09.278Z,13.93
2023-02-11T09:35:08.513Z,13.63
2023-02-11T09:40:08.299Z,14.18
2023-02-11T09:45:16.707Z,12.50
2023-02-11T09:50:22.958Z,14.27
2023-02-11T09:55:34.277Z,11.98
2023-02-11T10:00:43.310Z,12.93
2023-02-11T10:06:19.995Z,13.15
2023-02-11T10:11:35.781Z,13.07
2023-02-11T10:22:19.822Z,11.57
2023-02-11T10:27:21.786Z,14.15
2023-02-11T10:33:16.080Z,13.88
2023-02-11T10:38:14.954Z,14.02
2023-02-11T10:43:16.668Z,14.95
2023-02-11T10:48:43.512Z,13.55
2023-02-11T10:53:42.490Z,14.20
2023-02-11T10:58:45.636Z,14.40
2023-02-11T11:03:51.422Z,12.80
2023-02-11T11:08:51.800Z,13.13
2023-02-11T11:13:53.740Z,12.88
2023-02-11T11:19:08.065Z,13.57
2023-02-11T11:24:20.360Z,13.10
2023-02-11T11:29:30.844Z,14.63
2023-02-11T11:34:42.137Z,13.18
2023-02-11T11:39:40.937Z,13.45
2023-02-11T11:44:42.912Z,13.85
2023-02-11T11:50:29.760Z,12.70
2023-02-11T11:55:42.541Z,11.50
2023-02-11T12:00:54.950Z,11.75
2023-02-11T12:06:20.122Z,12.32
2023-02-11T12:11:35.094Z,12.57
2023-02-11T12:16:50.574Z,12.77
2023-02-11T12:21:58.244Z,12.30
2023-02-11T12:27:10.874Z,10.05
2023-02-11T12:32:24.866Z,11.23
2023-02-11T12:38:16.103Z,12.30
2023-02-11T12:43:20.897Z,9.23
2023-02-11T12:48:35.830Z,10.13
2023-02-11T12:53:59.294Z,11.40
2023-02-11T12:59:00.693Z,12.40
2023-02-11T13:04:13.372Z,12.85
2023-02-11T13:09:21.267Z,11.55
2023-02-11T13:14:36.576Z,11.77
2023-02-11T13:19:51.222Z,11.13
2023-02-11T13:24:55.990Z,11.80
2023-02-11T13:30:20.024Z,12.68
2023-02-11T13:35:45.199Z,11.50
2023-02-11T13:40:44.538Z,11.70
2023-02-11T13:45:46.083Z,12.13
2023-02-11T13:50:54.762Z,13.25
2023-02-11T13:56:07.982Z,11.13
2023-02-11T14:01:07.877Z,11.15
2023-02-11T14:06:28.249Z,11.93
2023-02-11T14:11:33.477Z,12.45
2023-02-11T14:16:38.472Z,11.02
2023-02-11T14:21:42.484Z,12.00
2023-02-11T14:31:59.318Z,10.63
2023-02-11T14:37:10.512Z,11.80
2023-02-11T14:42:19.606Z,12.38
2023-02-11T14:47:44.063Z,11.07
2023-02-11T14:52:43.674Z,11.45
2023-02-11T14:57:44.718Z,12.25
2023-02-11T15:02:44.610Z,11.68
2023-02-11T15:07:50.057Z,11.55
2023-02-11T15:12:49.612Z,11.18
2023-02-11T15:17:48.604Z,12.18
2023-02-11T15:22:49.179Z,11.88
2023-02-11T15:27:54.008Z,11.23
2023-02-11T15:32:58.757Z,11.82
2023-02-11T15:37:59.708Z,11.77
2023-02-11T15:43:07.752Z,11.07
2023-02-11T15:48:09.310Z,10.15
2023-02-11T15:53:29.000Z,10.18
2023-02-11T15:58:27.910Z,11.48
2023-02-11T16:03:32.738Z,11.77
2023-02-11T16:08:32.878Z,11.23
2023-02-11T16:13:35.105Z,12.32
2023-02-11T16:18:39.956Z,13.80
2023-02-11T16:23:44.276Z,13.32
2023-02-11T16:28:43.003Z,13.18
2023-02-11T16:33:41.683Z,12.75
2023-02-11T16:38:40.529Z,12.02
2023-02-11T16:43:40.416Z,11.57
2023-02-11T16:48:39.196Z,13.45
2023-02-11T16:53:37.928Z,12.85
2023-02-11T16:58:36.763Z,11.90
2023-02-11T17:03:40.702Z,14.00
2023-02-11T17:08:40.190Z,15.02
2023-02-11T17:13:41.139Z,12.27
2023-02-11T17:18:40.143Z,11.88
2023-02-11T17:23:39.131Z,13.57
2023-02-11T17:28:40.956Z,12.15
2023-02-11T17:33:40.181Z,14.50
2023-02-11T17:38:39.355Z,13.27
2023-02-11T17:43:38.417Z,11.68
2023-02-11T17:48:38.656Z,11.82
2023-02-11T17:53:37.678Z,12.88
2023-02-11T17:58:36.683Z,12.48
2023-02-11T18:03:35.687Z,9.40
2023-02-11T18:08:36.139Z,10.70
2023-02-11T18:13:35.119Z,10.30
2023-02-11T18:18:34.648Z,12.35
2023-02-11T18:23:33.686Z,11.77
2023-02-11T18:28:32.510Z,12.80
2023-02-11T18:33:31.773Z,12.38
2023-02-11T18:38:30.608Z,11.90
2023-02-11T18:43:34.563Z,11.13
2023-02-11T18:48:33.375Z,11.98
2023-02-11T18:53:32.320Z,12.02
2023-02-11T18:58:31.253Z,11.52
2023-02-11T19:03:30.306Z,11.90
2023-02-11T19:08:29.129Z,12.23
2023-02-11T19:13:29.206Z,13.13
2023-02-11T19:18:28.218Z,13.23
2023-02-11T19:23:27.235Z,11.88
2023-02-11T19:28:26.051Z,11.63
2023-02-11T19:33:25.157Z,11.07
2023-02-11T19:38:24.168Z,10.70
2023-02-11T19:43:23.270Z,10.40
2023-02-11T19:48:23.113Z,11.65
2023-02-11T19:53:23.134Z,11.00
2023-02-11T19:58:21.934Z,10.23
2023-02-11T20:03:20.766Z,9.35
2023-02-11T20:08:19.470Z,9.15
2023-02-11T20:13:18.633Z,9.13
2023-02-11T20:18:17.634Z,9.38
2023-02-11T20:23:16.353Z,8.50
2023-02-11T20:28:15.177Z,11.27
2023-02-11T20:33:13.983Z,11.05
2023-02-11T20:38:12.754Z,9.70
2023-02-11T20:43:11.554Z,8.63
2023-02-11T20:48:11.368Z,8.50
2023-02-11T20:53:11.120Z,8.25
2023-02-11T20:58:09.844Z,8.63
2023-02-11T21:03:08.910Z,8.40
2023-02-11T21:08:07.660Z,9.55
2023-02-11T21:13:06.748Z,8.45
2023-02-11T21:18:05.577Z,9.55
2023-02-11T21:23:04.655Z,8.70
2023-02-11T21:28:04.214Z,9.38
2023-02-11T21:33:03.205Z,10.52
2023-02-11T21:38:02.524Z,11.07
2023-02-11T21:43:01.422Z,11.00
2023-02-11T21:48:00.377Z,9.55
2023-02-11T21:52:59.266Z,9.93
2023-02-11T21:57:58.010Z,10.15
2023-02-11T22:02:56.757Z,10.07
2023-02-11T22:07:55.847Z,9.90
2023-02-11T22:12:54.564Z,9.93
2023-02-11T22:17:53.376Z,9.75
2023-02-11T22:22:52.275Z,9.82
2023-02-11T22:27:51.109Z,9.32
2023-02-11T22:32:50.040Z,10.23
2023-02-11T22:37:48.791Z,12.13
2023-02-11T22:42:47.751Z,11.52
2023-02-11T22:47:46.441Z,12.50
2023-02-11T22:52:45.229Z,10.73
2023-02-11T22:57:44.272Z,11.38
2023-02-11T23:02:43.171Z,12.07
2023-02-11T23:07:41.914Z,12.15
2023-02-11T23:12:40.659Z,12.88
2023-02-11T23:17:39.398Z,13.43
2023-02-11T23:22:38.196Z,13.25
2023-02-11T23:27:36.998Z,14.05
2023-02-11T23:32:38.926Z,14.82
2023-02-11T23:37:37.688Z,12.35
2023-02-11T23:42:36.503Z,13.75
2023-02-11T23:47:35.447Z,14.15
2023-02-11T23:52:34.383Z,14.93
2023-02-11T23:57:33.665Z,15.15
